Perdriel, Argentina
Current Conditions -  °F | °C
As of 8:00 PM on Friday 28 Nov 2014 (Local Time) from SAME Reporting Station
Clear Clear  
Wind Chill: 30°   Ceiling: Unl
Heat Index: 30°   Visibility: 6mi
Dew Point:   Wind: 7mph
Humidity: 20%   Direction: 50°NE
Pressure: 29.59"   Gusts: NA
Location:  33.15°S, 68.88°W
Report Text: SAME 282300Z 05006KT CAVOK 30/05 Q1002
Loading
Personal Weather Stations






























Interactive Weather Map New forecast layout! Learn more

10-Day Weather Forecast

Advertisements
Track Severe Weather on mobile